Fort Myers, FL

1:24 PM EDT on September 23, 2014 (GMT -0400)
Southwest Florida International | Change Station
CLOSE
Current Station
Airport
Location: Fort Myers Airport,
Elevation: 30 ft
Nearby Weather Stations

Elev 30 ft 26.54 °N, 81.76 °W | Updated 31 minutes ago

Scattered Clouds
Scattered Clouds
77 °F
Feels Like 77 °F
N
17
Wind Variable Wind from SSW

Today
High -- | Low -- °F
--% Chance of Precip.
Yesterday
High -- | Low -- °F
Precip. -- in
7:16 AM 7:22 PM
Waning Crescent, 0% visible
Pressure 30.02 in
Visibility 10.0 miles
Clouds Few 1500 ft
Scattered Clouds 3000 ft
Scattered Clouds 4000 ft
Dew Point 67 °F
Humidity 71%
Rainfall 0.00 in
Snow Depth Not available.
UV 10 out of 12
Pollen 2.60 out of 12
Air Quality Not available.
Flu Activity Not available.
METAR KRSW 231653Z AUTO 20015KT 10SM FEW015 SCT030 SCT040 25/19 A3003 RMK AO2 SLP165 T02500194

More Conditions Fewer Conditions

Pressure 30.02 in
Visibility 10.0 miles
Clouds Few 1500 ft
Scattered Clouds 3000 ft
Scattered Clouds 4000 ft
Dew Point 67 °F
Humidity 71%
Rainfall 0.00 in
Snow Depth Not available.
UV 10 out of 12
Pollen 2.60 out of 12
Air Quality Not available.
Flu Activity Not available.
METAR KRSW 231653Z AUTO 20015KT 10SM FEW015 SCT030 SCT040 25/19 A3003 RMK AO2 SLP165 T02500194

More Conditions Fewer Conditions

10-Day Weather Forecast

Almanac

Astronomy

Sep. 23, 2014 Rise Set
Actual Time 7:16 AM EDT 7:22 PM EDT
Civil Twilight 6:52 AM EDT 7:45 PM EDT
Nautical Twilight 6:25 AM EDT 8:12 PM EDT
Astronomical Twilight 5:58 AM EDT 8:39 PM EDT
Moon 6:40 AM EDT 7:01 PM EDT
Length of Visible Light 12h 52m
Length of Day
12h 06m
Tomorrow will be 1m 32s shorter.
Waning Crescent, 0% of the Moon is Illuminated
Today
Waning Crescent
Sep 24
New
Oct 1
First Quarter
Oct 8
Full
Oct 15
Last Quarter

Today's Extremes

State Highs State Lows

Community

WunderPhotos

Upload Photos

1,755,756 photos uploaded!

WunderBlogs® & News

Nearby

Snow Depth

Station Depth Elevation
No new snow has been reported.

Earthquake Activity

City Distance Mag. Time & Date
No recent earthquake activity has been reported nearby.
Minimum magnitude displayed is 2.5.

Coastal Water Temperatures

Place Temperature
Fort Myers, FL 82.9 °F
Naples, FL 86.0 °F

Nearby Weather Stations